createdAt,value
2023-09-03T00:00:30.352Z,61.87
2023-09-03T00:02:56.812Z,61.84
2023-09-03T00:05:23.293Z,61.79
2023-09-03T00:07:52.745Z,62.07
2023-09-03T00:10:19.712Z,61.83
2023-09-03T00:12:46.084Z,61.84
2023-09-03T00:15:13.843Z,62.11
2023-09-03T00:17:40.701Z,61.73
2023-09-03T00:20:07.311Z,61.88
2023-09-03T00:22:33.663Z,61.69
2023-09-03T00:25:00.056Z,61.78
2023-09-03T00:27:27.313Z,61.66
2023-09-03T00:29:54.840Z,61.53
2023-09-03T00:32:21.227Z,61.80
2023-09-03T00:34:47.658Z,61.67
2023-09-03T00:37:16.469Z,61.44
2023-09-03T00:39:42.893Z,61.53
2023-09-03T00:42:09.263Z,61.40
2023-09-03T00:44:35.619Z,61.77
2023-09-03T00:47:02.042Z,61.74
2023-09-03T00:49:28.443Z,61.69
2023-09-03T00:51:55.210Z,61.65
2023-09-03T00:54:22.780Z,61.69
2023-09-03T00:56:49.459Z,61.67
2023-09-03T00:59:15.906Z,61.61
2023-09-03T01:01:43.176Z,61.57
2023-09-03T01:04:11.184Z,61.39
2023-09-03T01:06:37.652Z,61.59
2023-09-03T01:09:04.041Z,61.46
2023-09-03T01:11:36.609Z,61.44
2023-09-03T01:14:05.937Z,61.24
2023-09-03T01:16:33.571Z,61.42
2023-09-03T01:19:00.684Z,61.37
2023-09-03T01:21:27.124Z,61.41
2023-09-03T01:24:11.940Z,61.04
2023-09-03T01:26:57.982Z,61.27
2023-09-03T01:29:24.395Z,61.01
2023-09-03T01:31:50.749Z,61.21
2023-09-03T01:34:17.456Z,61.21
2023-09-03T01:36:43.819Z,61.23
2023-09-03T01:39:10.192Z,61.08
2023-09-03T01:41:37.847Z,61.24
2023-09-03T01:44:06.182Z,60.95
2023-09-03T01:46:44.213Z,60.97
2023-09-03T01:49:20.605Z,60.98
2023-09-03T01:51:53.326Z,61.06
2023-09-03T01:54:29.943Z,60.63
2023-09-03T01:57:02.252Z,60.69
2023-09-03T01:59:55.178Z,60.56
2023-09-03T02:02:21.839Z,60.59
2023-09-03T02:04:48.284Z,60.70
2023-09-03T02:07:14.691Z,60.53
2023-09-03T02:09:41.107Z,60.45
2023-09-03T02:12:07.842Z,60.33
2023-09-03T02:14:34.298Z,60.21
2023-09-03T02:17:01.031Z,60.14
2023-09-03T02:19:27.443Z,60.04
2023-09-03T02:21:53.815Z,59.97
2023-09-03T02:24:20.244Z,60.16
2023-09-03T02:26:47.011Z,59.94
2023-09-03T02:29:13.512Z,60.01
2023-09-03T02:31:39.926Z,59.86
2023-09-03T02:34:06.715Z,59.78
2023-09-03T02:36:35.069Z,59.61
2023-09-03T02:39:01.589Z,59.53
2023-09-03T02:41:28.393Z,59.60
2023-09-03T02:43:55.023Z,59.63
2023-09-03T02:46:22.190Z,59.59
2023-09-03T02:48:48.694Z,59.64
2023-09-03T02:51:15.292Z,59.69
2023-09-03T02:53:44.036Z,59.43
2023-09-03T02:56:10.998Z,59.57
2023-09-03T02:58:39.216Z,59.45
2023-09-03T03:01:09.081Z,59.60
2023-09-03T03:03:35.600Z,59.41
2023-09-03T03:06:02.125Z,59.51
2023-09-03T03:08:28.496Z,59.40
2023-09-03T03:11:05.046Z,59.33
2023-09-03T03:13:32.439Z,59.25
2023-09-03T03:16:04.415Z,59.24
2023-09-03T03:18:31.791Z,59.07
2023-09-03T03:21:06.805Z,59.01
2023-09-03T03:23:33.929Z,59.14
2023-09-03T03:26:00.363Z,58.79
2023-09-03T03:28:26.720Z,58.84
2023-09-03T03:30:53.089Z,58.94
2023-09-03T03:33:19.439Z,58.74
2023-09-03T03:35:45.893Z,58.67
2023-09-03T03:38:12.340Z,58.56
2023-09-03T03:40:38.716Z,58.77
2023-09-03T03:43:05.074Z,58.55
2023-09-03T03:45:33.572Z,58.50
2023-09-03T03:48:00.062Z,58.58
2023-09-03T03:50:26.429Z,58.37
2023-09-03T03:52:52.790Z,58.28
2023-09-03T03:55:19.262Z,58.27
2023-09-03T03:57:45.626Z,58.29
2023-09-03T04:00:12.103Z,58.40
2023-09-03T04:02:38.460Z,58.36
2023-09-03T04:05:04.895Z,58.19
2023-09-03T04:07:31.261Z,58.37
2023-09-03T04:09:57.692Z,58.11
2023-09-03T04:12:24.102Z,58.09
2023-09-03T04:14:50.561Z,58.08
2023-09-03T04:17:16.940Z,58.03
2023-09-03T04:19:48.128Z,58.29
2023-09-03T04:22:14.739Z,58.05
2023-09-03T04:24:41.324Z,58.25
2023-09-03T04:27:07.729Z,58.04
2023-09-03T04:29:34.089Z,58.12
2023-09-03T04:32:00.452Z,58.08
2023-09-03T04:34:27.581Z,58.14
2023-09-03T04:36:53.952Z,58.22
2023-09-03T04:39:20.304Z,58.11
2023-09-03T04:41:46.716Z,58.03
2023-09-03T04:44:13.873Z,58.08
2023-09-03T04:46:40.349Z,58.04
2023-09-03T04:49:06.805Z,58.24
2023-09-03T04:51:33.184Z,58.13
2023-09-03T04:53:59.690Z,58.08
2023-09-03T04:56:26.077Z,58.07
2023-09-03T04:58:52.511Z,58.15
2023-09-03T05:01:19.035Z,58.15
2023-09-03T05:03:45.667Z,58.00
2023-09-03T05:06:13.757Z,58.02
2023-09-03T05:08:40.133Z,57.97
2023-09-03T05:11:13.806Z,57.94
2023-09-03T05:13:40.353Z,57.94
2023-09-03T05:16:06.798Z,57.82
2023-09-03T05:18:33.618Z,57.68
2023-09-03T05:21:00.006Z,57.82
2023-09-03T05:23:26.440Z,57.83
2023-09-03T05:25:52.854Z,57.66
2023-09-03T05:28:19.366Z,57.64
2023-09-03T05:30:49.026Z,57.80
2023-09-03T05:33:17.032Z,57.65
2023-09-03T05:35:43.485Z,57.77
2023-09-03T05:38:09.859Z,57.58
2023-09-03T05:40:36.243Z,57.53
2023-09-03T05:43:02.609Z,57.55
2023-09-03T05:45:28.983Z,57.42
2023-09-03T05:47:55.384Z,57.66
2023-09-03T05:50:21.775Z,57.52
2023-09-03T05:52:48.467Z,57.37
2023-09-03T05:55:14.847Z,57.34
2023-09-03T05:57:41.474Z,57.50
2023-09-03T06:00:08.014Z,57.56
2023-09-03T06:02:34.749Z,57.37
2023-09-03T06:05:01.108Z,57.73
2023-09-03T06:07:27.480Z,57.66
2023-09-03T06:09:54.165Z,57.56
2023-09-03T06:12:20.757Z,57.79
2023-09-03T06:14:47.145Z,57.41
2023-09-03T06:17:13.541Z,57.54
2023-09-03T06:19:39.937Z,57.55
2023-09-03T06:22:06.300Z,57.67
2023-09-03T06:24:32.799Z,57.13
2023-09-03T06:26:59.232Z,57.60
2023-09-03T06:29:26.636Z,59.39
2023-09-03T06:31:53.033Z,59.08
2023-09-03T06:34:21.506Z,59.47
2023-09-03T06:36:47.872Z,59.08
2023-09-03T06:39:14.822Z,59.51
2023-09-03T06:41:41.240Z,59.72
2023-09-03T06:44:08.024Z,59.56
2023-09-03T06:46:34.543Z,59.79
2023-09-03T06:49:00.905Z,59.80
2023-09-03T06:51:27.274Z,59.81
2023-09-03T06:53:53.644Z,59.71
2023-09-03T06:56:20.028Z,59.76
2023-09-03T06:58:46.930Z,59.25
2023-09-03T07:01:13.373Z,59.10
2023-09-03T07:03:39.790Z,58.72
2023-09-03T07:06:06.212Z,59.26
2023-09-03T07:08:32.607Z,59.59
2023-09-03T07:10:59.295Z,60.08
2023-09-03T07:13:25.639Z,60.02
2023-09-03T07:15:52.002Z,59.71
2023-09-03T07:18:18.417Z,59.94
2023-09-03T07:20:44.773Z,59.63
2023-09-03T07:23:12.039Z,59.83
2023-09-03T07:25:40.235Z,59.68
2023-09-03T07:28:06.669Z,59.59
2023-09-03T07:30:33.107Z,59.22
2023-09-03T07:32:59.624Z,59.79
2023-09-03T07:35:26.700Z,59.57
2023-09-03T07:37:53.070Z,60.39
2023-09-03T07:40:21.431Z,59.56
2023-09-03T07:42:47.887Z,60.18
2023-09-03T07:45:14.533Z,59.72
2023-09-03T07:47:40.961Z,59.56
2023-09-03T07:50:07.569Z,59.60
2023-09-03T07:52:34.016Z,59.16
2023-09-03T07:55:00.388Z,59.42
2023-09-03T07:57:28.955Z,58.89
2023-09-03T07:59:55.341Z,58.76
2023-09-03T08:02:21.783Z,59.16
2023-09-03T08:04:48.995Z,59.67
2023-09-03T08:07:15.822Z,59.21
2023-09-03T08:09:42.725Z,59.07
2023-09-03T08:12:09.072Z,59.06
2023-09-03T08:14:35.439Z,59.27
2023-09-03T08:17:01.878Z,59.38
2023-09-03T08:19:28.243Z,59.17
2023-09-03T08:21:54.928Z,58.93
2023-09-03T08:24:21.310Z,58.96
2023-09-03T08:26:48.953Z,58.67
2023-09-03T08:29:15.343Z,58.29
2023-09-03T08:31:41.820Z,58.21
2023-09-03T08:34:08.297Z,58.26
2023-09-03T08:36:34.652Z,58.23
2023-09-03T08:39:03.023Z,57.85
2023-09-03T08:41:29.397Z,58.09
2023-09-03T08:43:58.636Z,57.68
2023-09-03T08:46:25.353Z,57.56
2023-09-03T08:48:51.762Z,57.09
2023-09-03T08:51:18.110Z,57.25
2023-09-03T08:53:44.481Z,57.15
2023-09-03T08:56:10.857Z,56.87
2023-09-03T08:58:37.257Z,56.88
2023-09-03T09:01:03.735Z,57.08
2023-09-03T09:03:30.417Z,56.79
2023-09-03T09:05:56.867Z,56.73
2023-09-03T09:08:23.839Z,56.76
2023-09-03T09:10:51.594Z,56.61
2023-09-03T09:13:19.681Z,56.26
2023-09-03T09:15:46.402Z,56.40
2023-09-03T09:18:12.877Z,56.01
2023-09-03T09:20:42.580Z,55.22
2023-09-03T09:23:09.150Z,55.11
2023-09-03T09:25:36.557Z,55.15
2023-09-03T09:28:12.810Z,54.99
2023-09-03T09:30:52.144Z,54.78
2023-09-03T09:33:19.645Z,54.48
2023-09-03T09:35:46.167Z,54.32
2023-09-03T09:38:12.513Z,54.23
2023-09-03T09:40:38.974Z,54.23
2023-09-03T09:43:07.248Z,54.51
2023-09-03T09:45:33.753Z,54.35
2023-09-03T09:48:07.354Z,53.96
2023-09-03T09:50:34.258Z,54.18
2023-09-03T09:53:01.368Z,54.22
2023-09-03T09:55:31.073Z,54.37
2023-09-03T09:57:57.478Z,54.43
2023-09-03T10:00:33.877Z,54.35
2023-09-03T10:03:00.410Z,53.97
2023-09-03T10:05:26.886Z,53.91
2023-09-03T10:07:56.015Z,53.38
2023-09-03T10:10:22.360Z,53.50
2023-09-03T10:12:48.736Z,53.16
2023-09-03T10:15:15.947Z,53.07
2023-09-03T10:17:42.774Z,53.03
2023-09-03T10:20:12.046Z,52.66
2023-09-03T10:22:40.257Z,52.85
2023-09-03T10:25:16.378Z,52.73
2023-09-03T10:27:45.184Z,52.54
2023-09-03T10:30:12.061Z,52.73
2023-09-03T10:32:38.770Z,52.71
2023-09-03T10:35:11.555Z,52.70
2023-09-03T10:37:41.495Z,52.50
2023-09-03T10:40:17.668Z,52.57
2023-09-03T10:42:44.014Z,52.60
2023-09-03T10:45:12.536Z,52.78
2023-09-03T10:47:57.223Z,53.03
2023-09-03T10:50:46.857Z,52.68
2023-09-03T10:53:31.762Z,53.21
2023-09-03T10:56:11.045Z,53.16
2023-09-03T10:58:52.390Z,53.65
2023-09-03T11:01:22.980Z,53.33
2023-09-03T11:03:53.400Z,53.26
2023-09-03T11:06:19.887Z,53.30
2023-09-03T11:08:46.998Z,52.95
2023-09-03T11:11:19.655Z,53.30
2023-09-03T11:13:49.403Z,53.47
2023-09-03T11:16:15.791Z,53.93
2023-09-03T11:18:47.399Z,53.42
2023-09-03T11:21:13.787Z,53.11
2023-09-03T11:23:40.145Z,52.66
2023-09-03T11:26:13.386Z,52.93
2023-09-03T11:28:39.742Z,52.27
2023-09-03T11:31:06.249Z,52.07
2023-09-03T11:33:32.658Z,52.26
2023-09-03T11:36:01.199Z,52.22
2023-09-03T11:38:27.716Z,52.62
2023-09-03T11:40:56.302Z,52.11
2023-09-03T11:43:22.889Z,52.01
2023-09-03T11:45:49.466Z,52.11
2023-09-03T11:48:16.048Z,51.93
2023-09-03T11:50:42.407Z,51.68
2023-09-03T11:53:10.613Z,52.64
2023-09-03T11:55:38.858Z,52.36
2023-09-03T11:58:05.988Z,52.80
2023-09-03T12:00:32.654Z,52.65
2023-09-03T12:02:59.787Z,52.81
2023-09-03T12:05:26.452Z,52.63
2023-09-03T12:07:52.830Z,52.01
2023-09-03T12:10:22.608Z,52.19
2023-09-03T12:12:48.981Z,51.18
2023-09-03T12:15:21.565Z,52.31
2023-09-03T12:17:47.984Z,52.56
2023-09-03T12:20:33.232Z,52.07
2023-09-03T12:23:14.223Z,52.00
2023-09-03T12:25:41.356Z,52.87
2023-09-03T12:28:08.077Z,52.91
2023-09-03T12:30:53.199Z,52.69
2023-09-03T12:33:20.196Z,52.21
2023-09-03T12:35:47.045Z,52.15
2023-09-03T12:38:13.527Z,52.18
2023-09-03T12:40:40.024Z,52.55
2023-09-03T12:43:06.447Z,52.67
2023-09-03T12:45:32.801Z,52.49
2023-09-03T12:47:59.213Z,52.31
2023-09-03T12:50:25.617Z,52.36
2023-09-03T12:52:51.976Z,53.04
2023-09-03T12:55:19.927Z,52.80
2023-09-03T12:57:47.569Z,52.59
2023-09-03T13:00:13.980Z,52.70
2023-09-03T13:02:40.510Z,53.14
2023-09-03T13:05:07.032Z,52.55
2023-09-03T13:07:33.446Z,53.18
2023-09-03T13:09:59.821Z,53.12
2023-09-03T13:12:26.234Z,53.48
2023-09-03T13:14:52.679Z,53.22
2023-09-03T13:17:19.485Z,53.32
2023-09-03T13:19:45.936Z,53.27
2023-09-03T13:22:12.308Z,53.13
2023-09-03T13:24:38.705Z,53.44
2023-09-03T13:27:05.165Z,53.20
2023-09-03T13:29:31.568Z,53.31
2023-09-03T13:31:57.954Z,53.27
2023-09-03T13:34:24.473Z,53.42
2023-09-03T13:36:50.937Z,53.37
2023-09-03T13:39:17.305Z,53.19
2023-09-03T13:41:43.725Z,53.24
2023-09-03T13:44:10.135Z,53.19
2023-09-03T13:46:36.521Z,53.22
2023-09-03T13:49:02.897Z,53.03
2023-09-03T13:51:29.283Z,53.14
2023-09-03T13:53:57.340Z,53.27
2023-09-03T13:56:23.744Z,52.96
2023-09-03T13:58:50.104Z,53.09
2023-09-03T14:01:16.501Z,52.97
2023-09-03T14:03:42.929Z,52.92
2023-09-03T14:06:10.197Z,52.54
2023-09-03T14:08:37.005Z,52.73
2023-09-03T14:11:03.801Z,52.66
2023-09-03T14:13:30.801Z,53.00
2023-09-03T14:15:57.650Z,52.79
2023-09-03T14:18:25.050Z,52.86
2023-09-03T14:20:51.600Z,52.93
2023-09-03T14:23:18.230Z,52.45
2023-09-03T14:25:44.674Z,52.50
2023-09-03T14:28:11.066Z,53.15
2023-09-03T14:30:37.858Z,53.23
2023-09-03T14:33:04.561Z,53.11
2023-09-03T14:35:30.951Z,52.77
2023-09-03T14:37:57.571Z,52.29
2023-09-03T14:40:24.211Z,52.13
2023-09-03T14:42:50.594Z,52.76
2023-09-03T14:45:16.948Z,51.87
2023-09-03T14:47:43.469Z,52.18
2023-09-03T14:50:10.289Z,53.28
2023-09-03T14:52:36.659Z,52.32
2023-09-03T14:55:03.900Z,52.04
2023-09-03T14:57:30.259Z,51.83
2023-09-03T14:59:56.615Z,51.64
2023-09-03T15:02:22.968Z,51.58
2023-09-03T15:04:49.319Z,51.36
2023-09-03T15:07:15.697Z,51.39
2023-09-03T15:09:42.061Z,52.06
2023-09-03T15:12:08.532Z,51.82
2023-09-03T15:14:34.889Z,51.81
2023-09-03T15:17:01.240Z,54.09
2023-09-03T15:19:27.649Z,54.06
2023-09-03T15:21:54.046Z,53.39
2023-09-03T15:24:20.418Z,53.55
2023-09-03T15:26:47.162Z,53.57
2023-09-03T15:29:13.629Z,53.75
2023-09-03T15:31:40.068Z,54.98
2023-09-03T15:34:09.809Z,54.76
2023-09-03T15:36:36.217Z,55.75
2023-09-03T15:39:02.580Z,54.63
2023-09-03T15:41:28.938Z,54.75
2023-09-03T15:44:02.295Z,54.56
2023-09-03T15:46:28.985Z,54.87
2023-09-03T15:48:55.407Z,55.16
2023-09-03T15:51:21.856Z,55.20
2023-09-03T15:53:48.365Z,55.10
2023-09-03T15:56:14.833Z,55.13
2023-09-03T15:58:41.176Z,56.03
2023-09-03T16:01:07.632Z,56.68
2023-09-03T16:03:34.564Z,55.34
2023-09-03T16:06:01.011Z,55.76
2023-09-03T16:08:27.493Z,54.58
2023-09-03T16:10:53.866Z,55.11
2023-09-03T16:13:20.307Z,55.40
2023-09-03T16:15:46.918Z,55.36
2023-09-03T16:18:14.375Z,54.81
2023-09-03T16:20:41.022Z,54.46
2023-09-03T16:23:07.612Z,54.90
2023-09-03T16:25:34.009Z,55.37
2023-09-03T16:28:00.446Z,55.57
2023-09-03T16:30:26.809Z,55.66
2023-09-03T16:32:53.501Z,55.61
2023-09-03T16:35:20.700Z,54.97
2023-09-03T16:37:47.112Z,54.05
2023-09-03T16:40:13.863Z,54.17
2023-09-03T16:42:40.356Z,55.16
2023-09-03T16:45:06.947Z,54.94
2023-09-03T16:47:33.343Z,55.06
2023-09-03T16:50:00.449Z,55.03
2023-09-03T16:52:28.389Z,55.11
2023-09-03T16:54:54.927Z,54.60
2023-09-03T16:57:22.417Z,54.71
2023-09-03T16:59:48.780Z,55.14
2023-09-03T17:02:15.189Z,55.23
2023-09-03T17:04:42.533Z,55.05
2023-09-03T17:07:09.411Z,55.35
2023-09-03T17:09:35.839Z,55.21
2023-09-03T17:12:02.816Z,55.08
2023-09-03T17:14:29.508Z,55.13
2023-09-03T17:16:56.038Z,55.25
2023-09-03T17:19:22.451Z,55.56
2023-09-03T17:21:48.850Z,55.43
2023-09-03T17:24:15.351Z,55.61
2023-09-03T17:26:41.728Z,55.47
2023-09-03T17:29:08.146Z,55.74
2023-09-03T17:31:34.964Z,55.99
2023-09-03T17:34:01.641Z,55.96
2023-09-03T17:36:28.234Z,55.92
2023-09-03T17:38:54.619Z,55.72
2023-09-03T17:41:21.029Z,55.92
2023-09-03T17:43:47.478Z,56.02
2023-09-03T17:46:13.918Z,56.03
2023-09-03T17:48:40.314Z,55.95
2023-09-03T17:51:06.685Z,55.89
2023-09-03T17:53:33.801Z,55.84
2023-09-03T17:56:00.255Z,55.82
2023-09-03T17:58:29.500Z,55.79
2023-09-03T18:00:57.594Z,55.84
2023-09-03T18:03:24.083Z,56.03
2023-09-03T18:05:50.790Z,55.77
2023-09-03T18:08:17.202Z,56.01
2023-09-03T18:10:43.564Z,55.84
2023-09-03T18:13:10.164Z,55.86
2023-09-03T18:15:36.605Z,56.01
2023-09-03T18:18:03.086Z,56.16
2023-09-03T18:20:29.542Z,55.89
2023-09-03T18:22:55.898Z,55.86
2023-09-03T18:25:25.097Z,56.17
2023-09-03T18:27:51.694Z,55.98
2023-09-03T18:30:18.085Z,55.94
2023-09-03T18:32:44.504Z,56.17
2023-09-03T18:35:11.168Z,56.17
2023-09-03T18:37:37.755Z,55.95
2023-09-03T18:40:04.915Z,56.01
2023-09-03T18:42:31.304Z,56.06
2023-09-03T18:44:57.677Z,56.09
2023-09-03T18:47:24.071Z,56.17
2023-09-03T18:49:50.443Z,55.89
2023-09-03T18:52:16.812Z,55.96
2023-09-03T18:54:43.353Z,56.09
2023-09-03T18:57:09.746Z,56.17
2023-09-03T18:59:36.456Z,55.99
2023-09-03T19:02:02.846Z,56.04
2023-09-03T19:04:29.289Z,56.02
2023-09-03T19:06:55.662Z,56.00
2023-09-03T19:09:22.017Z,55.92
2023-09-03T19:11:48.407Z,56.14
2023-09-03T19:14:14.820Z,56.10
2023-09-03T19:16:41.296Z,55.91
2023-09-03T19:19:07.765Z,55.85
2023-09-03T19:21:34.810Z,56.12
2023-09-03T19:24:04.608Z,56.07
2023-09-03T19:26:30.986Z,55.93
2023-09-03T19:28:57.790Z,56.01
2023-09-03T19:31:24.338Z,56.24
2023-09-03T19:33:50.947Z,56.21
2023-09-03T19:36:17.361Z,56.12
2023-09-03T19:38:43.725Z,56.05
2023-09-03T19:41:10.184Z,56.02
2023-09-03T19:43:36.618Z,56.04
2023-09-03T19:46:03.106Z,56.05
2023-09-03T19:48:34.607Z,56.12
2023-09-03T19:51:01.192Z,56.15
2023-09-03T19:53:29.213Z,56.29
2023-09-03T19:55:55.581Z,56.14
2023-09-03T19:58:22.189Z,56.00
2023-09-03T20:00:50.401Z,55.86
2023-09-03T20:03:16.946Z,55.95
2023-09-03T20:05:43.491Z,55.86
2023-09-03T20:08:09.916Z,55.72
2023-09-03T20:10:36.933Z,55.98
2023-09-03T20:13:05.290Z,55.94
2023-09-03T20:15:32.348Z,55.84
2023-09-03T20:18:00.273Z,55.76
2023-09-03T20:20:27.748Z,55.73
2023-09-03T20:22:57.746Z,55.91
2023-09-03T20:25:24.134Z,55.77
2023-09-03T20:27:50.501Z,55.83
2023-09-03T20:30:16.861Z,56.02
2023-09-03T20:32:43.268Z,55.84
2023-09-03T20:35:09.646Z,56.14
2023-09-03T20:37:39.780Z,55.94
2023-09-03T20:40:07.942Z,55.93
2023-09-03T20:42:34.519Z,55.87
2023-09-03T20:45:00.875Z,56.13
2023-09-03T20:47:27.320Z,55.89
2023-09-03T20:49:53.821Z,56.30
2023-09-03T20:52:20.185Z,55.92
2023-09-03T20:54:46.542Z,56.01
2023-09-03T20:57:12.896Z,55.89
2023-09-03T20:59:39.267Z,56.09
2023-09-03T21:02:05.630Z,55.86
2023-09-03T21:04:32.318Z,56.05
2023-09-03T21:06:58.675Z,55.85
2023-09-03T21:09:25.081Z,55.75
2023-09-03T21:11:51.449Z,55.96
2023-09-03T21:14:17.880Z,56.02
2023-09-03T21:16:44.305Z,55.80
2023-09-03T21:19:10.682Z,55.83
2023-09-03T21:21:38.251Z,56.04
2023-09-03T21:24:04.768Z,56.00
2023-09-03T21:26:31.179Z,55.95
2023-09-03T21:28:57.544Z,56.02
2023-09-03T21:31:24.005Z,56.18
2023-09-03T21:33:50.633Z,55.90
2023-09-03T21:36:20.433Z,55.89
2023-09-03T21:38:47.092Z,56.14
2023-09-03T21:41:13.475Z,55.92
2023-09-03T21:43:46.241Z,55.83
2023-09-03T21:46:12.681Z,55.82
2023-09-03T21:48:39.107Z,55.86
2023-09-03T21:51:17.964Z,55.84
2023-09-03T21:53:45.868Z,56.16
2023-09-03T21:56:12.769Z,55.93
2023-09-03T21:58:39.141Z,55.88
2023-09-03T22:01:05.593Z,56.00
2023-09-03T22:03:32.132Z,56.04
2023-09-03T22:05:58.622Z,55.95
2023-09-03T22:08:25.176Z,56.13
2023-09-03T22:10:51.729Z,56.15
2023-09-03T22:13:18.140Z,56.12
2023-09-03T22:15:44.520Z,56.02
2023-09-03T22:18:10.945Z,56.17
2023-09-03T22:20:37.393Z,56.02
2023-09-03T22:23:03.739Z,55.90
2023-09-03T22:25:30.106Z,56.09
2023-09-03T22:27:56.478Z,56.05
2023-09-03T22:30:22.856Z,56.05
2023-09-03T22:32:49.279Z,56.18
2023-09-03T22:35:15.727Z,56.20
2023-09-03T22:37:42.088Z,56.08
2023-09-03T22:40:08.801Z,56.21
2023-09-03T22:42:35.196Z,56.12
2023-09-03T22:45:01.591Z,56.29
2023-09-03T22:47:29.634Z,55.97
2023-09-03T22:49:56.301Z,56.27
2023-09-03T22:52:22.685Z,56.13
2023-09-03T22:54:49.053Z,56.10
2023-09-03T22:57:16.343Z,56.11
2023-09-03T22:59:42.701Z,56.08
2023-09-03T23:02:09.104Z,56.21
2023-09-03T23:04:35.504Z,55.99
2023-09-03T23:07:01.881Z,55.98
2023-09-03T23:09:28.461Z,56.06
2023-09-03T23:11:55.248Z,56.00
2023-09-03T23:14:21.818Z,56.22
2023-09-03T23:16:48.651Z,55.96
2023-09-03T23:19:15.040Z,55.95
2023-09-03T23:21:41.434Z,56.15
2023-09-03T23:24:07.798Z,55.93
2023-09-03T23:26:34.254Z,56.11
2023-09-03T23:29:00.600Z,56.02
2023-09-03T23:31:26.972Z,56.02
2023-09-03T23:33:53.331Z,56.24
2023-09-03T23:36:19.725Z,56.06
2023-09-03T23:38:46.139Z,56.27
2023-09-03T23:41:13.492Z,56.13
2023-09-03T23:43:39.931Z,56.28
2023-09-03T23:46:06.636Z,56.19
2023-09-03T23:48:33.087Z,56.16
2023-09-03T23:50:59.488Z,56.11
2023-09-03T23:53:26.681Z,56.29
2023-09-03T23:55:53.436Z,56.18
2023-09-03T23:58:19.816Z,56.12
